Time;durP1;ratioP1;P1;durP2;ratioP2;P2;SDS_P1;SDS_P2;PMS_P1;PMS_P2;Temp;Humidity;BMP_temperature;BMP_pressure;BME280_temperature;BME280_humidity;BME280_pressure;Samples;Min_cycle;Max_cycle;Signal;HPM_P1;HPM_P2
2022/10/02 00:01:11;;;;;;;10.68;3.03;;;;;;;15.87;95.79;94993.06;5074238;28;20031;-78
2022/10/02 00:03:40;;;;;;;10.50;2.92;;;;;;;15.69;95.07;94937.97;5097459;28;20462;-78
2022/10/02 00:06:14;;;;;;;15.75;3.40;;;;;;;15.90;94.49;94983.63;5081214;28;20452;-77
2022/10/02 00:08:42;;;;;;;7.55;2.80;;;;;;;15.63;94.76;94933.88;5097946;28;20027;-77
2022/10/02 00:11:17;;;;;;;12.55;3.25;;;;;;;16.06;94.84;94982.88;5097498;28;20440;-77
2022/10/02 00:13:48;;;;;;;6.43;3.10;;;;;;;15.68;93.77;94928.38;5076642;28;20039;-77
2022/10/02 00:16:32;;;;;;;9.38;3.17;;;;;;;16.03;93.74;94982.69;5099802;27;20061;-77
2022/10/02 00:18:58;;;;;;;10.98;3.53;;;;;;;15.48;93.99;94911.00;5097419;28;20055;-77
2022/10/02 00:22:00;;;;;;;16.35;3.72;;;;;;;15.99;93.40;94985.22;5097573;28;20047;-78
2022/10/02 00:24:57;;;;;;;7.50;4.50;;;;;;;15.60;93.93;94927.25;5082170;28;20134;-77
2022/10/02 00:27:51;;;;;;;12.02;4.32;;;;;;;15.90;93.31;94997.78;5045680;28;20048;-77
2022/10/02 00:30:17;;;;;;;15.15;4.47;;;;;;;15.67;92.83;94954.31;5092604;28;20035;-78
2022/10/02 00:33:21;;;;;;;14.52;4.15;;;;;;;15.92;93.62;94997.47;5083087;28;20036;-78
2022/10/02 00:35:56;;;;;;;13.07;4.93;;;;;;;15.99;93.90;94995.13;5080396;28;20078;-77
2022/10/02 00:38:56;;;;;;;13.05;4.55;;;;;;;15.92;94.46;95002.84;5065887;28;20034;-77
2022/10/02 00:41:31;;;;;;;17.70;6.63;;;;;;;15.89;93.53;95003.44;5077877;28;20923;-77
2022/10/02 00:44:33;;;;;;;15.23;6.00;;;;;;;15.92;94.02;95013.53;5096755;28;20054;-77
2022/10/02 00:47:01;;;;;;;12.70;6.00;;;;;;;15.79;93.63;95024.00;5093616;28;20039;-77
2022/10/02 00:49:36;;;;;;;9.48;5.45;;;;;;;15.78;94.10;95027.81;5062209;28;20023;-77
2022/10/02 00:52:13;;;;;;;7.88;4.70;;;;;;;15.73;93.63;95035.94;5096275;28;20063;-77
2022/10/02 00:55:10;;;;;;;10.13;5.47;;;;;;;15.82;93.90;95035.97;5089636;28;20494;-77
2022/10/02 00:57:58;;;;;;;10.85;5.45;;;;;;;15.85;92.71;95047.97;5079226;28;20577;-77
2022/10/02 01:00:25;;;;;;;16.65;6.05;;;;;;;15.17;93.05;94929.75;5077045;28;20045;-77
2022/10/02 01:02:56;;;;;;;15.73;6.10;;;;;;;15.88;92.47;95042.75;5061589;28;20032;-77
2022/10/02 01:05:22;;;;;;;;;;;;;;;15.87;92.66;95033.16;5080127;28;20080;-76
2022/10/02 01:07:52;;;;;;;9.30;6.30;;;;;;;15.66;92.52;95006.19;5079430;28;19928;-77
2022/10/02 01:10:18;;;;;;;8.00;5.57;;;;;;;15.92;92.41;95041.06;5073666;28;20048;-77
2022/10/02 01:12:44;;;;;;;9.85;6.13;;;;;;;15.91;92.62;95031.47;5085037;28;20027;-77
2022/10/02 01:15:21;;;;;;;8.48;5.97;;;;;;;15.64;92.55;94992.34;5097639;28;20046;-77
2022/10/02 01:17:49;;;;;;;10.70;5.13;;;;;;;15.84;91.36;95017.75;5096898;28;20055;-77
2022/10/02 01:20:23;;;;;;;11.38;5.20;;;;;;;15.37;90.70;94979.97;5097698;28;20039;-77
2022/10/02 01:23:04;;;;;;;12.05;4.65;;;;;;;15.44;91.27;95022.28;5079094;28;20118;-77
2022/10/02 01:25:30;;;;;;;7.57;4.85;;;;;;;14.87;90.43;94930.56;5095065;28;20134;-77
2022/10/02 01:27:56;;;;;;;10.95;4.47;;;;;;;15.66;89.68;95048.19;5061096;28;20131;-77
2022/10/02 01:30:22;;;;;;;8.23;3.75;;;;;;;15.70;88.74;95043.81;5079227;28;20031;-77
2022/10/02 01:32:59;;;;;;;5.97;4.00;;;;;;;15.52;88.68;95053.59;5078991;28;20036;-77
2022/10/02 01:35:33;;;;;;;7.15;3.90;;;;;;;15.45;88.28;95058.59;5077101;28;20035;-77
2022/10/02 01:38:06;;;;;;;5.00;3.05;;;;;;;15.27;86.92;95024.84;5098507;28;20041;-77
2022/10/02 01:40:34;;;;;;;5.88;3.70;;;;;;;15.52;86.09;95058.94;5076633;28;20035;-77
2022/10/02 01:43:08;;;;;;;10.40;3.08;;;;;;;15.20;87.08;95035.97;5097524;28;20035;-76
2022/10/02 01:45:48;;;;;;;4.35;3.40;;;;;;;15.51;87.47;95069.94;5075888;28;20483;-76
2022/10/02 01:48:43;;;;;;;5.15;3.00;;;;;;;15.48;86.58;95073.25;5079037;28;20103;-76
2022/10/02 01:51:09;;;;;;;5.10;2.45;;;;;;;15.53;85.09;95075.78;5087369;28;20132;-76
2022/10/02 01:53:56;;;;;;;4.25;2.60;;;;;;;14.83;86.03;94996.31;5101336;28;20363;-77
2022/10/02 01:57:05;;;;;;;4.22;2.60;;;;;;;15.30;84.00;95088.38;5078659;28;20082;-76
2022/10/02 01:59:39;;;;;;;7.88;2.72;;;;;;;15.22;84.32;95089.09;4978241;28;20076;-76
2022/10/02 02:02:40;;;;;;;4.20;2.17;;;;;;;15.12;85.31;95084.78;5074943;28;20052;-76
2022/10/02 02:05:25;;;;;;;6.68;2.70;;;;;;;15.09;84.42;95076.59;5087388;28;20079;-76
2022/10/02 02:08:25;;;;;;;12.73;2.60;;;;;;;15.10;85.17;95078.19;5101152;28;20665;-76
2022/10/02 02:11:13;;;;;;;5.93;2.35;;;;;;;15.13;84.83;95085.56;5091135;28;20079;-77
2022/10/02 02:14:03;;;;;;;3.78;2.22;;;;;;;15.03;84.82;95091.94;5082181;28;20038;-77
2022/10/02 02:16:44;;;;;;;5.28;2.30;;;;;;;14.91;84.24;95095.16;5099594;28;20155;-77
2022/10/02 02:19:28;;;;;;;3.17;1.92;;;;;;;14.77;83.72;95106.97;5100354;28;20051;-77
2022/10/02 02:22:25;;;;;;;6.82;2.05;;;;;;;14.88;85.91;95102.97;5100609;28;20039;-77
2022/10/02 02:25:05;;;;;;;4.10;2.58;;;;;;;14.38;84.74;95024.81;5068957;27;20151;-77
2022/10/02 02:27:37;;;;;;;4.93;2.60;;;;;;;14.61;83.76;95077.97;5115916;27;20032;-76
2022/10/02 02:30:10;;;;;;;3.03;1.80;;;;;;;13.82;83.97;95000.13;5081753;28;20547;-77
2022/10/02 02:32:40;;;;;;;5.85;1.92;;;;;;;14.05;83.75;95035.63;5100752;28;20035;-77
2022/10/02 02:35:16;;;;;;;3.22;1.88;;;;;;;14.38;84.85;95084.34;5100192;28;20057;-77
2022/10/02 02:37:44;;;;;;;4.85;1.60;;;;;;;14.68;82.97;95125.59;5099622;28;20042;-77
2022/10/02 02:40:21;;;;;;;2.55;1.70;;;;;;;14.03;82.25;95024.50;5098995;28;20782;-77
2022/10/02 02:43:00;;;;;;;4.25;1.88;;;;;;;14.37;83.43;95090.72;5099933;28;20039;-77
2022/10/02 02:45:31;;;;;;;5.88;1.70;;;;;;;14.63;82.49;95128.38;5099221;28;20782;-77
2022/10/02 02:48:24;;;;;;;2.15;1.52;;;;;;;14.60;82.24;95136.97;5098196;28;20059;-77
2022/10/02 02:50:55;;;;;;;6.13;2.35;;;;;;;14.69;82.54;95135.19;5080521;27;20135;-77
2022/10/02 02:53:30;;;;;;;4.38;1.35;;;;;;;14.29;82.62;95107.44;5100689;28;20039;-77
2022/10/02 02:56:01;;;;;;;2.67;1.98;;;;;;;14.59;83.36;95149.50;5099583;28;20053;-77
2022/10/02 02:58:26;;;;;;;2.10;1.70;;;;;;;14.54;82.73;95141.63;5099035;28;20046;-76
2022/10/02 03:00:52;;;;;;;3.83;1.75;;;;;;;14.46;83.85;95133.53;5098464;28;20553;-77
2022/10/02 03:03:17;;;;;;;3.20;1.85;;;;;;;14.59;83.39;95154.06;5079310;28;20035;-77
2022/10/02 03:05:48;;;;;;;4.18;1.75;;;;;;;14.57;82.74;95167.69;5080223;28;20036;-77
2022/10/02 03:08:27;;;;;;;2.28;1.83;;;;;;;14.42;82.16;95144.00;5097002;28;20491;-77
2022/10/02 03:11:08;;;;;;;3.55;1.60;;;;;;;14.60;82.24;95174.31;5063909;28;20804;-77
2022/10/02 03:14:10;;;;;;;4.55;2.13;;;;;;;14.35;83.19;95138.25;5079186;28;20046;-77
2022/10/02 03:16:50;;;;;;;2.35;1.67;;;;;;;14.55;82.51;95180.56;5077797;28;20066;-76
2022/10/02 03:19:44;;;;;;;4.07;2.53;;;;;;;14.57;82.98;95183.72;5097563;28;20051;-75
2022/10/02 03:22:44;;;;;;;2.42;1.90;;;;;;;14.41;83.37;95177.13;5096123;28;20316;-75
2022/10/02 03:25:34;;;;;;;6.40;2.63;;;;;;;14.58;81.53;95198.63;5006359;28;20519;-76
2022/10/02 03:28:29;;;;;;;9.32;2.80;;;;;;;14.26;82.76;95153.38;5067497;28;20062;-76
2022/10/02 03:30:56;;;;;;;19.42;3.90;;;;;;;14.43;82.19;95166.94;5098196;28;20755;-77
2022/10/02 03:33:23;;;;;;;6.63;2.72;;;;;;;14.56;82.08;95184.03;5097551;28;20032;-77
2022/10/02 03:35:50;;;;;;;6.28;2.90;;;;;;;14.53;81.33;95190.75;5079572;28;20036;-77
2022/10/02 03:38:18;;;;;;;6.85;3.10;;;;;;;14.46;82.64;95187.69;5080679;28;20032;-76
2022/10/02 03:40:43;;;;;;;5.93;3.60;;;;;;;14.45;83.01;95196.78;5098494;28;20031;-76
2022/10/02 03:43:18;;;;;;;6.75;3.30;;;;;;;14.25;82.45;95173.94;5099212;28;20032;-76
2022/10/02 03:45:44;;;;;;;8.35;3.75;;;;;;;14.34;83.15;95187.38;5098529;28;20139;-76
2022/10/02 03:48:09;;;;;;;3.75;3.10;;;;;;;14.02;82.56;95155.44;5098791;28;20420;-76
2022/10/02 03:50:35;;;;;;;8.90;4.03;;;;;;;14.05;83.81;95170.84;5098608;28;20863;-76
2022/10/02 03:53:00;;;;;;;5.68;3.35;;;;;;;13.97;83.30;95158.19;5098264;28;20146;-76
2022/10/02 03:55:34;;;;;;;7.35;3.53;;;;;;;14.43;83.62;95208.81;5098207;28;20038;-76
2022/10/02 03:58:08;;;;;;;5.10;3.75;;;;;;;13.89;82.82;95176.44;5078073;28;20128;-77
2022/10/02 04:00:37;;;;;;;5.30;3.33;;;;;;;14.16;82.44;95223.72;5097170;28;20520;-77
2022/10/02 04:03:27;;;;;;;3.45;3.15;;;;;;;14.40;81.91;95239.56;5098850;27;20042;-77
2022/10/02 04:06:02;;;;;;;8.55;3.83;;;;;;;14.45;81.03;95238.69;5079593;28;20561;-77
2022/10/02 04:08:46;;;;;;;5.22;3.83;;;;;;;14.28;82.17;95237.34;5095451;28;20524;-77
2022/10/02 04:11:26;;;;;;;5.03;3.38;;;;;;;14.32;82.15;95252.78;5061144;28;20047;-75
2022/10/02 04:14:06;;;;;;;5.53;3.80;;;;;;;14.31;81.93;95257.31;5076626;28;20032;-77
2022/10/02 04:17:01;;;;;;;5.57;3.58;;;;;;;14.29;81.41;95270.94;5097151;28;20646;-75
2022/10/02 04:19:50;;;;;;;4.97;3.63;;;;;;;14.35;80.63;95271.63;5098023;28;20842;-75
2022/10/02 04:22:16;;;;;;;5.10;3.30;;;;;;;14.37;80.80;95279.34;5096407;28;20050;-77
2022/10/02 04:24:47;;;;;;;5.28;3.58;;;;;;;14.45;79.29;95300.03;5091113;28;20040;-75
2022/10/02 04:27:17;;;;;;;4.25;3.45;;;;;;;14.50;79.14;95290.06;5097262;28;20050;-76
2022/10/02 04:30:09;;;;;;;5.70;2.97;;;;;;;14.55;79.41;95299.88;5097976;28;20047;-77
2022/10/02 04:32:35;;;;;;;4.47;3.53;;;;;;;14.54;78.97;95296.41;5085375;28;20536;-76
2022/10/02 04:35:27;;;;;;;8.35;3.53;;;;;;;14.51;79.90;95280.97;5080111;28;20130;-76
2022/10/02 04:38:23;;;;;;;3.03;2.72;;;;;;;14.47;78.85;95282.66;5047590;28;20055;-76
2022/10/02 04:41:02;;;;;;;4.95;4.00;;;;;;;14.55;79.82;95281.19;5078188;28;20042;-76
2022/10/02 04:43:47;;;;;;;6.47;3.95;;;;;;;14.53;79.49;95302.84;5077846;28;20032;-75
2022/10/02 04:46:38;;;;;;;7.60;3.95;;;;;;;14.53;79.67;95296.69;5077567;28;20032;-75
2022/10/02 04:49:25;;;;;;;6.10;3.83;;;;;;;14.45;79.32;95300.84;5074513;28;20044;-76
2022/10/02 04:51:54;;;;;;;5.57;4.03;;;;;;;14.48;79.57;95302.94;5097421;28;20032;-76
2022/10/02 04:54:45;;;;;;;6.82;4.22;;;;;;;14.54;80.35;95324.97;5078818;28;20049;-76
2022/10/02 04:57:17;;;;;;;10.45;3.95;;;;;;;14.53;79.15;95324.19;5083288;28;20047;-75
2022/10/02 05:00:01;;;;;;;;;;;;;;;14.48;78.70;95337.63;5098111;28;20032;-75
2022/10/02 05:03:10;;;;;;;4.57;3.97;;;;;;;14.43;79.18;95324.34;5095448;28;19920;-76
2022/10/02 05:06:08;;;;;;;5.85;3.90;;;;;;;14.14;79.35;95297.88;5078098;28;20051;-79
2022/10/02 05:08:42;;;;;;;9.45;3.70;;;;;;;14.45;77.98;95351.53;5097623;28;20046;-76
2022/10/02 05:11:29;;;;;;;4.68;4.07;;;;;;;14.07;78.70;95294.00;5081301;28;20048;-76
2022/10/02 05:14:15;;;;;;;8.10;4.35;;;;;;;14.54;78.83;95349.00;5083527;28;20130;-76
2022/10/02 05:19:43;;;;;;;4.28;3.28;;;;;;;14.56;77.33;95355.63;5070844;22;20054;-77
2022/10/02 05:22:28;;;;;;;7.70;3.22;;;;;;;14.61;76.33;95342.19;5007862;28;20026;-78
2022/10/02 05:25:08;;;;;;;5.97;3.15;;;;;;;14.62;75.99;95349.09;4995382;28;20514;-78
2022/10/02 05:27:54;;;;;;;6.90;3.88;;;;;;;14.75;76.07;95346.75;5013024;28;20415;-78
2022/10/02 05:30:20;;;;;;;7.43;3.03;;;;;;;14.75;75.37;95357.41;4981476;28;20572;-78
2022/10/02 05:33:07;;;;;;;4.60;3.42;;;;;;;14.88;75.90;95378.78;5012281;28;20100;-78
2022/10/02 05:35:48;;;;;;;4.18;3.00;;;;;;;14.67;74.29;95321.53;4996046;28;20554;-78
2022/10/02 05:38:45;;;;;;;4.65;3.28;;;;;;;14.93;73.72;95348.53;5014033;28;20030;-78
2022/10/02 05:41:19;;;;;;;3.78;2.60;;;;;;;14.88;74.45;95356.63;4996020;28;20038;-77
2022/10/02 05:43:56;;;;;;;6.05;3.17;;;;;;;14.86;73.08;95356.94;4994259;28;20030;-77
2022/10/02 05:46:24;;;;;;;7.00;3.72;;;;;;;14.88;74.31;95359.31;4995587;28;20029;-79
2022/10/02 05:48:59;;;;;;;5.25;3.08;;;;;;;14.83;72.93;95372.75;4999715;28;20454;-78
2022/10/02 05:51:42;;;;;;;5.70;3.05;;;;;;;14.49;73.01;95331.22;5019019;28;20030;-78
2022/10/02 05:54:23;;;;;;;8.90;4.22;;;;;;;14.93;72.12;95380.59;4995905;28;20030;-78
2022/10/02 05:57:03;;;;;;;8.48;3.00;;;;;;;14.41;73.32;95328.41;4996081;28;20046;-78
2022/10/02 05:59:39;;;;;;;7.05;2.83;;;;;;;14.58;72.73;95333.97;5006538;28;20049;-78
2022/10/02 06:02:28;;;;;;;6.38;3.10;;;;;;;14.54;70.78;95357.00;4999044;28;20034;-77
2022/10/02 06:05:05;;;;;;;6.40;3.17;;;;;;;14.61;71.51;95376.88;4994575;28;20025;-77
2022/10/02 06:07:32;;;;;;;7.00;3.60;;;;;;;14.39;73.01;95358.06;5007652;28;20377;-78
2022/10/02 06:10:11;;;;;;;5.28;3.28;;;;;;;14.63;72.71;95396.06;5011190;28;20056;-78
2022/10/02 06:12:54;;;;;;;5.25;3.58;;;;;;;14.26;71.29;95340.09;4994987;28;20125;-77
2022/10/02 06:15:22;;;;;;;7.78;3.35;;;;;;;14.77;71.92;95414.00;4994827;28;20037;-78
2022/10/02 06:17:57;;;;;;;4.72;3.30;;;;;;;14.54;72.15;95381.00;4994851;28;20057;-78
2022/10/02 06:20:33;;;;;;;5.60;3.47;;;;;;;14.52;71.53;95396.53;5012120;28;20361;-77
2022/10/02 06:23:14;;;;;;;5.82;4.10;;;;;;;14.68;71.38;95429.88;5012517;28;20042;-78
2022/10/02 06:25:51;;;;;;;8.50;3.33;;;;;;;14.68;71.66;95436.00;5012742;28;20112;-77
2022/10/02 06:28:25;;;;;;;6.97;3.55;;;;;;;14.43;72.12;95383.06;5012921;28;20048;-77
2022/10/02 06:31:00;;;;;;;7.28;3.58;;;;;;;14.73;71.97;95437.00;4995119;28;20125;-79
2022/10/02 06:33:30;;;;;;;5.32;4.15;;;;;;;14.63;71.76;95444.13;4994660;28;20033;-79
2022/10/02 06:36:13;;;;;;;6.68;4.15;;;;;;;14.57;72.55;95407.13;4993892;28;20305;-78
2022/10/02 06:39:00;;;;;;;6.28;4.30;;;;;;;14.76;71.79;95442.56;4977077;28;20049;-78
2022/10/02 06:41:46;;;;;;;5.20;4.28;;;;;;;14.72;71.72;95441.56;5012288;28;20033;-77
2022/10/02 06:44:34;;;;;;;9.65;5.60;;;;;;;14.81;71.00;95447.81;4994852;28;20045;-79
2022/10/02 06:47:14;;;;;;;6.72;4.93;;;;;;;14.85;70.98;95437.34;5012369;28;20065;-82
2022/10/02 06:50:02;;;;;;;6.40;4.90;;;;;;;14.65;70.90;95409.09;4975805;28;20049;-78
2022/10/02 06:52:46;;;;;;;5.03;4.53;;;;;;;14.77;69.80;95432.69;4992970;28;20535;-78
2022/10/02 06:55:18;;;;;;;10.15;5.22;;;;;;;15.01;70.82;95444.81;4993724;28;20567;-78
2022/10/02 06:58:34;;;;;;;7.10;4.70;;;;;;;15.12;70.21;95449.94;5011646;28;20046;-79
2022/10/02 07:01:24;;;;;;;9.57;5.50;;;;;;;15.13;69.01;95451.53;4962666;28;20053;-82
2022/10/02 07:04:11;;;;;;;5.50;4.60;;;;;;;15.00;69.97;95509.97;4992455;28;20428;-78
2022/10/02 07:06:59;;;;;;;6.47;4.10;;;;;;;14.50;69.11;95402.16;4993780;28;20034;-82
2022/10/02 07:09:58;;;;;;;7.35;4.35;;;;;;;14.94;70.10;95449.72;5004163;28;20048;-80
2022/10/02 07:12:48;;;;;;;7.97;5.03;;;;;;;14.97;69.87;95459.03;5017240;28;20045;-79
2022/10/02 07:15:30;;;;;;;6.13;4.00;;;;;;;14.95;68.41;95464.66;5011661;28;20503;-79
2022/10/02 07:18:04;;;;;;;4.45;4.03;;;;;;;14.96;68.84;95460.91;5010681;28;20046;-78
2022/10/02 07:20:38;;;;;;;4.90;3.58;;;;;;;14.91;68.56;95442.31;5002618;28;20026;-78
2022/10/02 07:23:34;;;;;;;5.03;4.05;;;;;;;15.02;67.20;95457.06;4993356;28;20193;-79
2022/10/02 07:26:23;;;;;;;4.28;3.60;;;;;;;15.01;66.59;95476.06;4993779;28;20030;-79
2022/10/02 07:29:07;;;;;;;5.85;3.72;;;;;;;14.75;66.20;95413.47;4999993;28;20201;-78
2022/10/02 07:31:39;;;;;;;6.68;3.30;;;;;;;15.10;65.26;95450.25;5011567;28;20038;-79
2022/10/02 07:34:08;;;;;;;;;;;;;;;15.11;64.91;95467.06;5012155;28;20037;-78
2022/10/02 07:36:39;;;;;;;6.50;3.67;;;;;;;15.21;64.60;95467.66;4993555;28;20421;-78
2022/10/02 07:39:26;;;;;;;3.13;2.78;;;;;;;15.27;63.62;95479.03;4993176;28;20037;-77
2022/10/02 07:41:59;;;;;;;3.25;2.78;;;;;;;14.88;62.42;95413.50;5010445;28;20102;-79
2022/10/02 07:44:37;;;;;;;6.95;2.83;;;;;;;15.35;62.10;95518.44;4990605;28;20021;-78
2022/10/02 07:47:05;;;;;;;5.38;2.67;;;;;;;15.35;61.85;95513.91;4990991;28;20038;-78
2022/10/02 07:50:00;;;;;;;2.40;2.20;;;;;;;15.35;61.30;95521.91;5009697;28;20038;-80
2022/10/02 07:52:29;;;;;;;4.82;2.65;;;;;;;15.39;61.33;95482.84;4980559;28;20022;-80
2022/10/02 07:55:04;;;;;;;4.88;2.47;;;;;;;15.19;61.06;95477.06;5010227;28;20065;-81
2022/10/02 07:57:58;;;;;;;3.92;2.83;;;;;;;15.48;61.33;95477.59;4992751;28;20034;-78
2022/10/02 08:00:27;;;;;;;3.15;2.30;;;;;;;15.19;58.90;95450.34;5001263;28;20038;-78
2022/10/02 08:03:01;;;;;;;4.35;1.70;;;;;;;15.45;57.68;95476.31;5010719;28;20231;-78
2022/10/02 08:05:33;;;;;;;4.13;1.67;;;;;;;15.35;57.26;95492.53;4993194;28;20507;-79
2022/10/02 08:08:03;;;;;;;2.60;1.92;;;;;;;15.52;57.32;95496.50;4998718;28;20289;-78
2022/10/02 08:10:34;;;;;;;5.22;1.98;;;;;;;15.36;58.02;95470.06;5022538;28;20022;-79
2022/10/02 08:13:05;;;;;;;8.18;2.10;;;;;;;15.63;56.77;95530.81;4992856;28;20026;-78
2022/10/02 08:15:36;;;;;;;4.47;1.80;;;;;;;15.10;57.28;95452.13;5010286;28;20029;-77
2022/10/02 08:18:42;;;;;;;2.15;1.65;;;;;;;15.57;56.74;95523.16;4992799;28;20130;-79
2022/10/02 08:21:13;;;;;;;5.00;1.88;;;;;;;15.51;57.55;95493.03;4987945;28;21606;-79
2022/10/02 08:23:42;;;;;;;6.65;1.83;;;;;;;15.60;57.13;95525.25;4991620;28;20037;-78
2022/10/02 08:26:17;;;;;;;5.72;2.05;;;;;;;15.50;57.50;95504.81;5010637;28;20150;-78
2022/10/02 08:29:05;;;;;;;4.70;2.30;;;;;;;15.50;58.26;95562.81;5014245;28;20065;-78
2022/10/02 08:31:34;;;;;;;4.15;2.20;;;;;;;15.53;59.24;95503.44;5021173;28;20396;-82
2022/10/02 08:34:16;;;;;;;2.22;1.88;;;;;;;15.33;59.13;95477.88;4992129;28;20538;-78
2022/10/02 08:37:00;;;;;;;5.03;2.45;;;;;;;15.62;60.03;95510.50;4992015;28;20025;-79
2022/10/02 08:39:49;;;;;;;5.88;2.50;;;;;;;15.78;59.62;95509.13;4992348;28;20436;-78
2022/10/02 08:42:33;;;;;;;5.07;1.90;;;;;;;15.85;57.62;95519.41;4992719;28;20121;-79
2022/10/02 08:45:21;;;;;;;6.03;2.10;;;;;;;15.78;56.81;95519.81;4991337;28;20428;-80
2022/10/02 08:48:22;;;;;;;3.20;2.40;;;;;;;15.70;56.80;95492.97;4992081;28;20128;-79
2022/10/02 08:51:08;;;;;;;6.90;1.80;;;;;;;15.88;56.79;95518.81;4995294;28;20170;-78
2022/10/02 08:53:43;;;;;;;5.70;2.13;;;;;;;15.93;56.84;95507.22;5009787;28;20312;-79
2022/10/02 08:56:32;;;;;;;5.90;2.20;;;;;;;16.09;57.56;95497.81;4992249;28;20034;-78
2022/10/02 08:59:20;;;;;;;3.53;1.88;;;;;;;16.27;56.50;95506.75;4992010;28;20034;-78
2022/10/02 09:02:09;;;;;;;2.65;1.80;;;;;;;16.14;55.09;95492.31;5010254;28;20041;-79
2022/10/02 09:04:59;;;;;;;4.45;1.83;;;;;;;16.03;54.68;95496.28;4992025;28;20046;-78
2022/10/02 09:07:45;;;;;;;3.40;1.92;;;;;;;16.08;55.54;95491.66;4991801;28;20056;-78
2022/10/02 09:10:49;;;;;;;4.00;1.90;;;;;;;16.28;55.90;95498.44;4991279;28;20041;-78
2022/10/02 09:13:56;;;;;;;4.25;2.03;;;;;;;16.29;54.86;95509.94;4929520;29;20127;-79
2022/10/02 09:16:32;;;;;;;2.10;1.70;;;;;;;16.24;54.10;95494.00;5009442;28;20034;-78
2022/10/02 09:19:24;;;;;;;2.50;1.77;;;;;;;16.26;54.35;95500.63;5008983;28;20061;-78
2022/10/02 09:22:05;;;;;;;4.78;2.25;;;;;;;16.16;54.29;95495.50;5004266;28;20069;-78
2022/10/02 09:24:58;;;;;;;6.15;2.15;;;;;;;16.26;54.34;95508.66;4985680;28;20470;-78
2022/10/02 09:27:42;;;;;;;3.80;2.30;;;;;;;16.36;54.73;95504.97;4991441;28;20041;-78
2022/10/02 09:30:29;;;;;;;3.90;2.13;;;;;;;16.14;54.55;95436.94;4991905;28;20204;-84
2022/10/02 09:33:15;;;;;;;3.60;1.77;;;;;;;16.63;54.10;95520.97;5009595;28;20030;-78
2022/10/02 09:36:09;;;;;;;3.78;1.92;;;;;;;16.57;52.64;95500.72;5008645;28;20034;-79
2022/10/02 09:38:43;;;;;;;2.15;1.73;;;;;;;16.51;52.25;95504.63;4954948;28;20050;-79
2022/10/02 09:41:42;;;;;;;9.43;1.80;;;;;;;16.51;52.44;95512.66;5006382;28;20042;-79
2022/10/02 09:44:45;;;;;;;3.97;2.20;;;;;;;16.58;53.03;95513.81;4981416;28;20080;-78
2022/10/02 09:47:46;;;;;;;2.33;1.60;;;;;;;16.66;52.34;95488.22;5009027;28;20456;-78
2022/10/02 09:50:36;;;;;;;3.10;2.15;;;;;;;17.03;51.75;95511.16;4991363;28;20034;-78
2022/10/02 09:53:32;;;;;;;4.00;2.00;;;;;;;17.77;49.16;95486.50;4982167;28;20034;-77
2022/10/02 09:56:20;;;;;;;4.43;1.95;;;;;;;18.48;47.82;95490.56;4991323;28;20029;-77
2022/10/02 09:59:12;;;;;;;1.67;1.45;;;;;;;18.75;46.74;95516.34;5009492;28;20423;-78
2022/10/02 10:02:15;;;;;;;2.53;1.70;;;;;;;19.14;46.06;95539.56;5008695;28;20055;-78
2022/10/02 10:04:46;;;;;;;4.97;1.90;;;;;;;18.95;46.30;95557.91;4976668;28;20037;-77
2022/10/02 10:07:30;;;;;;;;;;;;;;;19.41;45.45;95509.59;5009341;28;20033;-77
2022/10/02 10:10:08;;;;;;;6.15;1.75;;;;;;;18.93;45.57;95479.50;4991190;28;19970;-79
2022/10/02 10:13:16;;;;;;;5.50;1.77;;;;;;;19.26;44.96;95524.34;4994263;28;20116;-78
2022/10/02 10:16:17;;;;;;;3.10;1.73;;;;;;;19.60;44.12;95485.06;4980106;28;20517;-77
2022/10/02 10:19:11;;;;;;;2.97;2.05;;;;;;;19.88;43.86;95496.16;4994218;28;20180;-79
2022/10/02 10:21:45;;;;;;;3.13;1.92;;;;;;;19.64;44.34;95488.66;5012344;28;20116;-79
2022/10/02 10:24:39;;;;;;;4.70;1.85;;;;;;;19.17;44.81;95479.75;5012344;28;20119;-80
2022/10/02 10:27:28;;;;;;;2.55;1.98;;;;;;;19.27;45.45;95509.00;4957015;28;20046;-78
2022/10/02 10:30:31;;;;;;;3.78;2.17;;;;;;;19.03;45.45;95535.63;4998338;28;20030;-78
2022/10/02 10:33:19;;;;;;;2.78;2.05;;;;;;;19.36;45.72;95482.09;4994717;28;20369;-78
2022/10/02 10:39:25;;;;;;;1.90;1.70;;;;;;;20.45;43.42;95468.72;5003393;28;20048;-78
2022/10/02 10:42:09;;;;;;;3.03;1.50;;;;;;;20.59;42.50;95443.13;4993903;28;20064;-78
2022/10/02 10:45:04;;;;;;;3.40;1.55;;;;;;;20.73;40.80;95461.72;5010134;28;20496;-78
2022/10/02 10:47:54;;;;;;;4.78;1.55;;;;;;;21.03;40.95;95470.47;5003712;28;20025;-78
2022/10/02 10:50:49;;;;;;;2.80;1.70;;;;;;;21.29;40.79;95487.19;4980143;28;20029;-79
2022/10/02 10:53:32;;;;;;;1.50;1.20;;;;;;;21.39;39.73;95511.03;5010464;28;20218;-78
2022/10/02 10:56:28;;;;;;;5.85;1.15;;;;;;;20.96;38.93;95476.41;4993692;28;20122;-78
2022/10/02 10:59:41;;;;;;;1.52;1.23;;;;;;;20.67;39.83;95528.47;5011654;28;20044;-78
2022/10/02 11:02:53;;;;;;;4.45;1.38;;;;;;;20.75;40.29;95470.25;4990940;28;20570;-78
2022/10/02 11:05:50;;;;;;;2.75;1.10;;;;;;;20.55;40.32;95465.66;4948643;28;20046;-78
2022/10/02 11:08:42;;;;;;;2.55;1.30;;;;;;;20.48;40.35;95492.34;4950211;29;20489;-78
2022/10/02 11:11:07;;;;;;;2.08;1.10;;;;;;;20.35;40.14;95470.72;4986251;28;20041;-78
2022/10/02 11:13:50;;;;;;;4.63;1.48;;;;;;;20.57;40.57;95464.22;4994002;28;20164;-78
2022/10/02 11:16:22;;;;;;;5.85;1.45;;;;;;;20.74;40.58;95464.06;5011994;28;20076;-78
2022/10/02 11:18:59;;;;;;;1.60;1.30;;;;;;;21.03;40.16;95487.44;5010770;28;20052;-79
2022/10/02 11:21:30;;;;;;;1.73;1.50;;;;;;;20.78;40.08;95497.31;5010510;28;20405;-78
2022/10/02 11:24:12;;;;;;;1.95;1.48;;;;;;;20.75;40.16;95460.22;5011053;28;20195;-78
2022/10/02 11:27:15;;;;;;;3.35;1.67;;;;;;;20.83;40.21;95453.19;4992890;28;20042;-79
2022/10/02 11:29:43;;;;;;;2.38;1.27;;;;;;;20.77;39.44;95492.25;5008838;28;20499;-78
2022/10/02 11:32:26;;;;;;;1.58;1.00;;;;;;;20.49;40.46;95467.75;5011751;28;20034;-79
2022/10/02 11:35:18;;;;;;;1.23;1.13;;;;;;;20.91;39.32;95465.00;4978294;28;20057;-79
2022/10/02 11:38:03;;;;;;;;;;;;;;;20.50;40.05;95477.44;4975608;28;20133;-79
2022/10/02 11:40:48;;;;;;;3.22;1.48;;;;;;;19.50;41.69;95491.56;5008765;28;19917;-78
2022/10/02 11:44:00;;;;;;;9.43;1.40;;;;;;;19.68;42.09;95489.63;4999949;28;20113;-78
2022/10/02 11:46:26;;;;;;;2.10;1.40;;;;;;;19.97;41.26;95443.88;4992675;28;20033;-78
2022/10/02 11:49:11;;;;;;;5.47;1.70;;;;;;;20.51;40.80;95472.84;4992447;28;20029;-79
2022/10/02 11:51:59;;;;;;;1.80;0.90;;;;;;;20.22;41.31;95455.56;5011162;28;20022;-78
2022/10/02 11:54:29;;;;;;;1.30;1.20;;;;;;;20.55;40.86;95461.06;4992999;28;20140;-80
2022/10/02 11:57:13;;;;;;;9.02;1.25;;;;;;;20.57;40.19;95469.59;4993102;28;20030;-78
2022/10/02 12:00:05;;;;;;;5.18;1.08;;;;;;;20.29;39.99;95500.84;4992980;28;20022;-78
2022/10/02 12:02:58;;;;;;;4.65;1.60;;;;;;;20.15;40.15;95513.75;4992725;28;20033;-78
2022/10/02 12:05:36;;;;;;;1.60;0.90;;;;;;;19.92;41.78;95454.81;4992345;28;20061;-78
2022/10/02 12:08:30;;;;;;;2.55;1.30;;;;;;;20.23;41.80;95484.06;5010812;28;20116;-78
2022/10/02 12:11:38;;;;;;;3.08;1.55;;;;;;;20.54;40.75;95489.09;5005645;28;20511;-78
2022/10/02 12:14:15;;;;;;;6.00;1.17;;;;;;;20.38;41.02;95512.34;5002454;28;20140;-78
2022/10/02 12:17:06;;;;;;;4.78;1.02;;;;;;;20.19;40.93;95466.22;5010114;28;20064;-78
2022/10/02 12:26:59;;;;;;;5.22;1.40;;;;;;;19.79;42.24;95444.28;4983308;28;20108;-78
2022/10/02 12:29:30;;;;;;;2.85;1.52;;;;;;;19.78;42.22;95445.38;5010301;28;20034;-78
2022/10/02 12:32:14;;;;;;;2.58;1.42;;;;;;;19.81;41.42;95475.13;4993120;28;20037;-78
2022/10/02 12:35:16;;;;;;;3.45;1.40;;;;;;;19.90;41.10;95448.19;4992254;28;20041;-78
2022/10/02 12:37:55;;;;;;;3.13;1.63;;;;;;;19.58;42.16;95450.41;4992024;28;20038;-78
2022/10/02 12:40:30;;;;;;;10.20;1.60;;;;;;;19.67;41.98;95455.75;5010115;28;20471;-78
2022/10/02 12:43:31;;;;;;;3.78;1.95;;;;;;;19.93;41.84;95448.31;5009947;28;20467;-79
2022/10/02 12:46:02;;;;;;;3.47;1.90;;;;;;;20.11;42.01;95450.91;4911010;29;20050;-78
2022/10/02 12:48:44;;;;;;;5.47;1.50;;;;;;;19.99;41.67;95438.91;4978607;28;20788;-77
2022/10/02 12:51:28;;;;;;;3.05;1.98;;;;;;;19.92;42.76;95448.63;5009666;28;20141;-78
2022/10/02 12:54:11;;;;;;;2.92;1.60;;;;;;;20.05;42.24;95458.38;4991837;28;20049;-78
2022/10/02 12:57:03;;;;;;;2.95;1.80;;;;;;;19.98;41.21;95458.91;5010184;28;20083;-78